Time;durP1;ratioP1;P1;durP2;ratioP2;P2;SDS_P1;SDS_P2;PMS_P1;PMS_P2;Temp;Humidity;BMP_temperature;BMP_pressure;BME280_temperature;BME280_humidity;BME280_pressure;Samples;Min_cycle;Max_cycle;Signal;HPM_P1;HPM_P2
2023/06/11 00:01:45;;;;;;;6.97;6.38;;;22.80;52.00;;;;;;5021785;28;20045;-44
2023/06/11 00:04:25;;;;;;;7.90;6.47;;;22.70;52.00;;;;;;5021394;28;20087;-46
2023/06/11 00:06:56;;;;;;;7.82;7.13;;;22.70;52.00;;;;;;5028279;28;20099;-46
2023/06/11 00:09:26;;;;;;;8.43;7.50;;;22.60;52.20;;;;;;5031244;28;20042;-47
2023/06/11 00:11:54;;;;;;;7.43;6.82;;;22.60;52.30;;;;;;5027304;28;20052;-44
2023/06/11 00:14:24;;;;;;;7.97;7.22;;;22.50;52.30;;;;;;5025247;28;20120;-47
2023/06/11 00:17:00;;;;;;;7.80;7.18;;;22.50;52.50;;;;;;5032352;28;20049;-44
2023/06/11 00:19:29;;;;;;;7.30;6.70;;;22.50;53.10;;;;;;5033616;28;20047;-47
2023/06/11 00:21:56;;;;;;;6.88;6.28;;;22.40;52.60;;;;;;5032220;28;20573;-46
2023/06/11 00:24:25;;;;;;;7.43;6.80;;;22.30;52.50;;;;;;5029812;28;20421;-46
2023/06/11 00:26:52;;;;;;;7.63;6.93;;;22.20;52.50;;;;;;5031364;28;20049;-47
2023/06/11 00:29:21;;;;;;;7.50;6.90;;;22.20;52.70;;;;;;5032990;28;20045;-44
2023/06/11 00:31:51;;;;;;;7.57;6.88;;;22.20;52.70;;;;;;5031644;28;20056;-45
2023/06/11 00:34:18;;;;;;;7.97;7.32;;;22.10;52.80;;;;;;5011521;28;20421;-43
2023/06/11 00:36:50;;;;;;;8.23;7.22;;;22.10;53.00;;;;;;5017449;28;20069;-43
2023/06/11 00:39:24;;;;;;;8.35;7.55;;;22.00;53.20;;;;;;5012214;28;20506;-44
2023/06/11 00:41:53;;;;;;;8.37;7.67;;;22.00;53.00;;;;;;5029544;28;20061;-47
2023/06/11 00:44:23;;;;;;;8.32;7.60;;;21.90;53.00;;;;;;5026121;28;20128;-46
2023/06/11 00:46:52;;;;;;;7.90;7.20;;;21.90;53.20;;;;;;5031268;28;20107;-46
2023/06/11 00:49:22;;;;;;;8.18;7.47;;;21.90;53.30;;;;;;5015395;28;20087;-45
2023/06/11 00:51:55;;;;;;;8.13;7.43;;;21.80;53.30;;;;;;5028270;28;20164;-44
2023/06/11 00:54:22;;;;;;;7.72;7.03;;;21.80;53.50;;;;;;5028883;28;20045;-44
2023/06/11 00:56:53;;;;;;;8.43;7.72;;;21.70;53.30;;;;;;5031621;28;20121;-47
2023/06/11 00:59:25;;;;;;;8.75;8.05;;;21.70;53.50;;;;;;5032115;28;20053;-46
2023/06/11 01:02:10;;;;;;;7.25;6.70;;;21.60;53.50;;;;;;5008407;28;20054;-43
2023/06/11 01:04:41;;;;;;;8.35;7.55;;;21.60;54.10;;;;;;5028370;28;20087;-46
2023/06/11 01:07:22;;;;;;;7.90;7.28;;;21.60;53.70;;;;;;5013742;28;20059;-46
2023/06/11 01:09:52;;;;;;;8.20;7.50;;;21.50;54.00;;;;;;5009908;28;20053;-46
2023/06/11 01:12:20;;;;;;;8.38;7.60;;;21.50;53.70;;;;;;5030939;28;20045;-46
2023/06/11 01:14:52;;;;;;;8.90;8.23;;;21.50;53.90;;;;;;5013668;28;20449;-47
2023/06/11 01:17:36;;;;;;;8.73;7.93;;;21.40;54.00;;;;;;5030446;28;20132;-49
2023/06/11 01:20:17;;;;;;;8.20;7.43;;;21.40;54.80;;;;;;5027998;28;20125;-46
2023/06/11 01:23:04;;;;;;;8.18;7.50;;;21.30;54.60;;;;;;4997252;28;20042;-46
2023/06/11 01:25:46;;;;;;;7.47;6.90;;;21.30;54.20;;;;;;5008024;28;20045;-48
2023/06/11 01:28:19;;;;;;;9.38;8.48;;;21.30;54.60;;;;;;5023162;28;20068;-44
2023/06/11 01:30:51;;;;;;;8.45;7.68;;;21.30;54.50;;;;;;5013019;28;20042;-46
2023/06/11 01:33:24;;;;;;;8.80;8.10;;;21.20;54.80;;;;;;5022859;28;20506;-47
2023/06/11 01:35:57;;;;;;;8.43;7.72;;;21.20;54.40;;;;;;5012961;28;20480;-44
2023/06/11 01:38:34;;;;;;;8.35;7.40;;;21.10;54.60;;;;;;5013933;28;20044;-44
2023/06/11 01:41:04;;;;;;;8.43;7.72;;;21.10;54.60;;;;;;5009697;28;20042;-46
2023/06/11 01:43:32;;;;;;;8.23;7.53;;;21.10;54.80;;;;;;5026685;28;20060;-45
2023/06/11 01:46:01;;;;;;;8.52;7.82;;;21.00;54.80;;;;;;5030367;28;20064;-46
2023/06/11 01:48:30;;;;;;;9.20;7.97;;;21.00;54.90;;;;;;5011463;28;20080;-45
2023/06/11 01:51:01;;;;;;;8.73;7.93;;;21.00;55.00;;;;;;5007237;28;20038;-44
2023/06/11 01:53:35;;;;;;;8.77;8.07;;;21.00;55.30;;;;;;5001653;28;20786;-44
2023/06/11 01:56:04;;;;;;;8.60;7.80;;;20.90;55.30;;;;;;5007357;28;20042;-46
2023/06/11 01:58:32;;;;;;;9.13;8.25;;;20.90;55.30;;;;;;5013378;28;20453;-44
2023/06/11 02:01:14;;;;;;;8.48;7.60;;;20.90;55.40;;;;;;5012476;28;20466;-44
2023/06/11 02:03:51;;;;;;;9.05;8.25;;;20.90;55.40;;;;;;5026323;28;20155;-45
2023/06/11 02:06:21;;;;;;;9.98;8.38;;;20.90;55.50;;;;;;5017570;28;20042;-44
2023/06/11 02:08:48;;;;;;;8.40;7.68;;;20.80;55.50;;;;;;5028470;28;20049;-47
2023/06/11 02:11:17;;;;;;;7.75;7.10;;;20.90;55.60;;;;;;5009483;28;20124;-43
2023/06/11 02:13:47;;;;;;;8.35;7.55;;;20.80;55.80;;;;;;5011940;28;20077;-46
2023/06/11 02:16:13;;;;;;;8.73;7.97;;;20.80;55.50;;;;;;5029862;28;20125;-44
2023/06/11 02:18:40;;;;;;;7.93;7.22;;;20.80;55.60;;;;;;5028670;28;20061;-44
2023/06/11 02:21:10;;;;;;;9.70;7.75;;;20.80;55.60;;;;;;5023523;28;20033;-44
2023/06/11 02:23:37;;;;;;;8.55;7.95;;;20.80;55.80;;;;;;5010518;28;20042;-47
2023/06/11 02:26:03;;;;;;;8.45;7.75;;;20.70;55.70;;;;;;5012465;28;20046;-44
2023/06/11 02:28:30;;;;;;;8.80;8.10;;;20.70;55.80;;;;;;5016582;28;20099;-48
2023/06/11 02:30:57;;;;;;;8.65;7.82;;;20.70;55.70;;;;;;5029335;28;20045;-44
2023/06/11 02:33:29;;;;;;;8.32;7.63;;;20.70;55.70;;;;;;5023193;28;20509;-44
2023/06/11 02:35:56;;;;;;;9.55;8.65;;;20.70;55.90;;;;;;5013925;28;20069;-44
2023/06/11 02:38:23;;;;;;;8.23;7.53;;;20.60;55.80;;;;;;5012626;28;20102;-45
2023/06/11 02:40:56;;;;;;;8.38;7.68;;;20.60;55.80;;;;;;5024204;28;20093;-45
2023/06/11 02:43:24;;;;;;;9.40;7.63;;;20.60;55.80;;;;;;5033095;28;20076;-44
2023/06/11 02:45:53;;;;;;;8.13;7.45;;;20.50;55.60;;;;;;5032444;28;20065;-45
2023/06/11 02:48:20;;;;;;;8.18;7.28;;;20.50;55.90;;;;;;5010655;28;20041;-44
2023/06/11 02:50:49;;;;;;;8.50;7.75;;;20.50;55.60;;;;;;5021455;28;20056;-43
2023/06/11 02:53:17;;;;;;;8.48;7.78;;;20.40;55.70;;;;;;5010832;28;20048;-44
2023/06/11 02:55:44;;;;;;;8.75;8.02;;;20.40;55.90;;;;;;5028746;28;20060;-42
2023/06/11 02:58:13;;;;;;;8.63;7.93;;;20.40;55.80;;;;;;5004763;28;20049;-45
2023/06/11 03:00:41;;;;;;;7.72;7.13;;;20.40;56.00;;;;;;5029628;28;20041;-43
2023/06/11 03:03:16;;;;;;;8.18;7.47;;;20.30;55.90;;;;;;5002555;28;20132;-44
2023/06/11 03:05:45;;;;;;;8.93;7.93;;;20.30;55.90;;;;;;5006436;28;20052;-44
2023/06/11 03:08:12;;;;;;;8.65;7.95;;;20.10;55.80;;;;;;5013126;28;20091;-44
2023/06/11 03:10:39;;;;;;;8.80;7.88;;;20.20;56.10;;;;;;5030435;28;20033;-44
2023/06/11 03:13:08;;;;;;;8.55;7.80;;;20.20;56.10;;;;;;5027083;28;20092;-43
2023/06/11 03:15:39;;;;;;;8.05;7.35;;;20.20;56.10;;;;;;5003237;28;20057;-44
2023/06/11 03:18:08;;;;;;;8.43;7.72;;;20.20;56.50;;;;;;5029865;28;20033;-44
2023/06/11 03:20:40;;;;;;;8.82;8.13;;;20.10;56.20;;;;;;5013372;28;20380;-43
2023/06/11 03:23:11;;;;;;;9.52;7.78;;;20.10;56.20;;;;;;5008450;28;20121;-45
2023/06/11 03:25:39;;;;;;;8.95;8.05;;;20.00;56.20;;;;;;5016833;28;20465;-45
2023/06/11 03:28:08;;;;;;;8.85;7.97;;;20.00;56.10;;;;;;5012059;28;20041;-45
2023/06/11 03:30:35;;;;;;;8.35;7.65;;;20.00;56.20;;;;;;5012858;28;20045;-43
2023/06/11 03:33:05;;;;;;;8.70;7.85;;;20.00;56.30;;;;;;5011316;28;20494;-45
2023/06/11 03:35:34;;;;;;;8.55;7.80;;;20.00;56.30;;;;;;5024721;28;20413;-43
2023/06/11 03:38:12;;;;;;;8.25;7.55;;;20.00;56.50;;;;;;4997553;28;20044;-45
2023/06/11 03:40:40;;;;;;;8.48;7.68;;;19.90;56.40;;;;;;5011619;28;20051;-43
2023/06/11 03:43:07;;;;;;;8.07;7.35;;;19.90;57.10;;;;;;5007524;28;20061;-45
2023/06/11 03:45:40;;;;;;;8.43;7.72;;;19.90;56.60;;;;;;5016023;28;20045;-44
2023/06/11 03:48:08;;;;;;;8.77;7.97;;;19.90;56.80;;;;;;5027654;23;20034;-45
2023/06/11 03:50:34;;;;;;;8.85;7.95;;;19.90;56.70;;;;;;4991301;28;20096;-43
2023/06/11 03:53:03;;;;;;;9.25;8.35;;;19.90;56.90;;;;;;4989497;28;20439;-44
2023/06/11 03:55:30;;;;;;;8.27;7.57;;;19.90;57.10;;;;;;5004322;28;20065;-42
2023/06/11 03:58:00;;;;;;;9.30;8.40;;;19.80;57.10;;;;;;5007466;28;20046;-44
2023/06/11 04:00:30;;;;;;;8.70;7.82;;;19.90;57.40;;;;;;4986553;28;20785;-43
2023/06/11 04:03:05;;;;;;;9.63;8.82;;;19.80;57.50;;;;;;4986000;28;20085;-43
2023/06/11 04:05:39;;;;;;;8.80;8.10;;;19.90;57.60;;;;;;4991201;28;20057;-44
2023/06/11 04:08:06;;;;;;;8.85;8.15;;;19.90;57.80;;;;;;4992395;28;20046;-43
2023/06/11 04:10:36;;;;;;;8.80;8.07;;;19.80;57.80;;;;;;4992736;28;20609;-46
2023/06/11 04:13:05;;;;;;;9.23;8.38;;;19.90;58.00;;;;;;4979570;28;20050;-46
2023/06/11 04:15:32;;;;;;;8.80;8.00;;;19.90;58.00;;;;;;5004150;28;20428;-43
2023/06/11 04:18:03;;;;;;;9.10;8.30;;;19.90;58.30;;;;;;4992252;28;20137;-44
2023/06/11 04:20:32;;;;;;;8.57;7.80;;;19.90;58.30;;;;;;5003822;28;20118;-44
2023/06/11 04:22:59;;;;;;;8.98;8.10;;;19.90;58.50;;;;;;4988615;28;20043;-43
2023/06/11 04:25:31;;;;;;;8.65;7.88;;;20.00;58.70;;;;;;4987334;28;20049;-44
2023/06/11 04:28:02;;;;;;;8.48;7.80;;;20.00;58.90;;;;;;4991079;28;20136;-43
2023/06/11 04:30:34;;;;;;;9.38;8.45;;;20.00;59.10;;;;;;5009622;28;20092;-44
2023/06/11 04:33:06;;;;;;;8.65;7.85;;;20.00;59.10;;;;;;4991184;28;20049;-44
2023/06/11 04:35:35;;;;;;;9.10;8.30;;;20.00;59.30;;;;;;4988531;28;20145;-44
2023/06/11 04:38:05;;;;;;;9.07;8.27;;;20.10;59.40;;;;;;4992111;28;20096;-43
2023/06/11 04:40:36;;;;;;;9.27;7.93;;;20.10;59.60;;;;;;4989270;28;20072;-43
2023/06/11 04:43:07;;;;;;;9.35;8.55;;;20.10;59.70;;;;;;4990865;28;20045;-46
2023/06/11 04:45:38;;;;;;;;;;;20.20;59.90;;;;;;4992196;28;20108;-44
2023/06/11 04:48:09;;;;;;;7.70;7.10;;;20.30;59.40;;;;;;4987698;28;19921;-44
2023/06/11 04:50:40;;;;;;;8.77;7.78;;;20.30;59.70;;;;;;4992582;28;20056;-45
2023/06/11 04:53:12;;;;;;;7.95;7.35;;;20.30;59.90;;;;;;5008620;28;20516;-44
2023/06/11 04:55:40;;;;;;;8.57;7.72;;;20.40;60.20;;;;;;4984397;28;20566;-43
2023/06/11 04:58:13;;;;;;;;;;;20.40;60.40;;;;;;5013428;28;20112;-43
2023/06/11 05:00:42;;;;;;;9.57;7.13;;;20.50;59.80;;;;;;5013291;28;19932;-44
2023/06/11 05:03:12;;;;;;;8.10;7.30;;;20.50;59.90;;;;;;4991510;28;20060;-44
2023/06/11 05:05:51;;;;;;;10.65;9.65;;;20.60;60.50;;;;;;4994637;28;20276;-44
2023/06/11 05:08:28;;;;;;;9.60;8.68;;;20.60;61.00;;;;;;4994204;28;20048;-44
2023/06/11 05:11:01;;;;;;;9.20;8.38;;;20.70;61.00;;;;;;4995714;28;20038;-44
2023/06/11 05:13:31;;;;;;;;;;;20.80;61.20;;;;;;4993894;28;20052;-44
2023/06/11 05:16:02;;;;;;;9.65;8.68;;;20.90;60.60;;;;;;5015235;28;19921;-45
2023/06/11 05:18:30;;;;;;;9.02;8.13;;;20.90;60.70;;;;;;4975446;28;20053;-44
2023/06/11 05:21:02;;;;;;;8.68;7.88;;;20.90;61.20;;;;;;4989726;28;20400;-46
2023/06/11 05:23:31;;;;;;;10.10;9.15;;;21.00;61.80;;;;;;4990578;28;20779;-46
2023/06/11 05:26:08;;;;;;;9.75;8.95;;;21.10;61.80;;;;;;4985348;28;20119;-43
2023/06/11 05:28:39;;;;;;;8.60;7.93;;;21.10;61.80;;;;;;4995260;28;20050;-45
2023/06/11 05:31:09;;;;;;;9.45;8.65;;;21.20;62.00;;;;;;4990888;28;20085;-43
2023/06/11 05:33:38;;;;;;;9.13;8.32;;;21.30;62.00;;;;;;4986801;28;20074;-43
2023/06/11 05:36:06;;;;;;;8.55;7.78;;;21.30;61.50;;;;;;4992801;28;20046;-44
2023/06/11 05:38:39;;;;;;;8.77;8.02;;;21.40;61.00;;;;;;4996684;28;20042;-44
2023/06/11 05:41:06;;;;;;;9.52;8.52;;;21.50;61.60;;;;;;4987230;28;20042;-44
2023/06/11 05:43:33;;;;;;;8.55;7.75;;;21.60;61.20;;;;;;4986286;28;20034;-52
2023/06/11 05:46:01;;;;;;;8.88;8.20;;;21.70;61.20;;;;;;5010628;28;20046;-48
2023/06/11 05:48:33;;;;;;;8.15;7.55;;;21.80;61.70;;;;;;4993196;28;20045;-49
2023/06/11 05:51:00;;;;;;;8.60;7.85;;;21.90;61.20;;;;;;4991153;28;20042;-52
2023/06/11 05:53:30;;;;;;;8.40;7.35;;;22.00;60.60;;;;;;5006643;28;20073;-50
2023/06/11 05:56:03;;;;;;;8.10;7.40;;;22.00;60.20;;;;;;4984346;28;20078;-50
2023/06/11 05:58:34;;;;;;;8.65;7.65;;;22.10;59.90;;;;;;4993027;28;20049;-50
2023/06/11 06:01:03;;;;;;;8.50;7.68;;;22.30;59.70;;;;;;4992733;28;20056;-50
2023/06/11 06:03:37;;;;;;;8.40;7.70;;;22.40;60.30;;;;;;4992716;28;20057;-51
2023/06/11 06:06:08;;;;;;;7.93;6.85;;;22.40;59.50;;;;;;4976136;28;20101;-51
2023/06/11 06:08:38;;;;;;;8.57;7.78;;;22.60;59.40;;;;;;5010154;28;20080;-52
2023/06/11 06:11:04;;;;;;;8.23;7.63;;;22.60;59.40;;;;;;5010461;28;20046;-51
2023/06/11 06:13:34;;;;;;;7.88;7.20;;;22.70;59.00;;;;;;4989967;28;20699;-52
2023/06/11 06:16:05;;;;;;;8.73;7.82;;;22.80;58.80;;;;;;4991097;28;20576;-52
2023/06/11 06:18:33;;;;;;;8.45;7.50;;;22.90;58.20;;;;;;4992573;28;20045;-51
2023/06/11 06:20:59;;;;;;;8.38;7.43;;;23.00;58.10;;;;;;4991131;28;20052;-49
2023/06/11 06:23:28;;;;;;;8.63;7.60;;;23.10;57.90;;;;;;4995410;28;20451;-52
2023/06/11 06:26:05;;;;;;;6.90;6.40;;;23.20;57.70;;;;;;4983647;28;20049;-51
2023/06/11 06:28:34;;;;;;;7.95;7.15;;;23.30;57.50;;;;;;4979258;28;20703;-53
2023/06/11 06:31:02;;;;;;;7.80;7.10;;;23.40;57.30;;;;;;4984262;28;20045;-49
2023/06/11 06:33:34;;;;;;;9.40;7.75;;;23.40;57.10;;;;;;5008299;28;20229;-53
2023/06/11 06:36:02;;;;;;;8.25;7.55;;;23.50;57.00;;;;;;4991418;28;20038;-51
2023/06/11 06:38:31;;;;;;;8.27;7.35;;;23.60;56.50;;;;;;4986600;28;20050;-49
2023/06/11 06:40:58;;;;;;;8.45;7.03;;;23.80;56.20;;;;;;4991527;28;20061;-53
2023/06/11 06:43:26;;;;;;;8.13;7.32;;;23.70;56.10;;;;;;4987864;28;20092;-52
2023/06/11 06:45:56;;;;;;;8.20;7.50;;;23.80;55.60;;;;;;4983514;28;20153;-48
2023/06/11 06:48:26;;;;;;;7.55;6.95;;;23.90;55.60;;;;;;4988339;28;20643;-51
2023/06/11 06:50:55;;;;;;;8.23;7.30;;;24.00;55.40;;;;;;4992141;28;20053;-51
2023/06/11 06:53:25;;;;;;;7.72;7.03;;;24.00;55.10;;;;;;4992748;28;20053;-53
2023/06/11 06:55:52;;;;;;;7.65;6.93;;;24.10;55.00;;;;;;4985619;28;20109;-52
2023/06/11 06:58:19;;;;;;;7.55;6.85;;;24.20;55.00;;;;;;4991948;28;20418;-53
2023/06/11 07:00:46;;;;;;;6.97;6.22;;;24.20;54.80;;;;;;4992693;28;20038;-50
2023/06/11 07:03:14;;;;;;;7.97;6.60;;;24.30;54.40;;;;;;4985238;28;20431;-52
2023/06/11 07:05:43;;;;;;;7.45;6.75;;;24.40;54.40;;;;;;4992328;28;20527;-52
2023/06/11 07:08:11;;;;;;;8.32;7.68;;;24.40;54.20;;;;;;4989336;28;20042;-50
2023/06/11 07:10:48;;;;;;;9.05;7.20;;;24.50;54.30;;;;;;4992704;28;20042;-51
2023/06/11 07:13:16;;;;;;;7.72;7.13;;;24.60;54.20;;;;;;4989598;28;20052;-52
2023/06/11 07:15:44;;;;;;;7.80;7.03;;;24.60;53.70;;;;;;4977593;28;20033;-51
2023/06/11 07:18:10;;;;;;;7.47;6.78;;;24.70;53.60;;;;;;5007796;28;20046;-53
2023/06/11 07:20:37;;;;;;;7.70;7.03;;;24.70;53.50;;;;;;4992194;28;20037;-50
2023/06/11 07:23:04;;;;;;;7.18;6.45;;;24.80;53.60;;;;;;4989292;28;20040;-53
2023/06/11 07:25:33;;;;;;;7.00;6.40;;;24.90;53.40;;;;;;4988270;28;20141;-51
2023/06/11 07:28:01;;;;;;;8.95;7.13;;;24.90;53.10;;;;;;4990758;28;20415;-50
2023/06/11 07:30:32;;;;;;;7.15;6.45;;;25.00;53.10;;;;;;4987405;28;20554;-54
2023/06/11 07:33:00;;;;;;;7.57;6.85;;;25.10;53.30;;;;;;4991195;28;20408;-52
2023/06/11 07:35:27;;;;;;;7.10;6.40;;;25.10;53.00;;;;;;4987367;28;20128;-51
2023/06/11 07:37:54;;;;;;;9.15;6.88;;;25.20;52.80;;;;;;5008354;28;20494;-52
2023/06/11 07:40:21;;;;;;;7.32;6.63;;;25.20;52.50;;;;;;4995637;28;20038;-53
2023/06/11 07:42:48;;;;;;;6.95;6.15;;;25.30;52.60;;;;;;5008549;28;20113;-54
2023/06/11 07:45:16;;;;;;;7.22;6.38;;;25.30;52.30;;;;;;4998618;28;20049;-49
2023/06/11 07:47:45;;;;;;;7.68;6.85;;;25.40;52.30;;;;;;4989109;28;20514;-50
2023/06/11 07:50:12;;;;;;;6.95;6.35;;;25.50;51.90;;;;;;5009997;28;20033;-49
2023/06/11 07:52:40;;;;;;;6.95;6.30;;;25.50;52.60;;;;;;4988243;28;20042;-53
2023/06/11 07:55:16;;;;;;;7.15;6.55;;;25.60;51.60;;;;;;4997666;28;20462;-53
2023/06/11 07:57:43;;;;;;;8.07;7.25;;;25.60;51.80;;;;;;5004662;28;20062;-49
2023/06/11 08:00:12;;;;;;;7.15;5.88;;;25.70;51.60;;;;;;5005240;28;20042;-49
2023/06/11 08:02:40;;;;;;;7.82;6.55;;;25.80;51.30;;;;;;5006640;28;20052;-50
2023/06/11 08:05:10;;;;;;;8.95;6.53;;;25.80;51.00;;;;;;5003087;28;20559;-51
2023/06/11 08:07:37;;;;;;;7.63;6.65;;;25.80;51.20;;;;;;5000704;28;20119;-50
2023/06/11 08:10:04;;;;;;;7.18;6.55;;;25.90;51.20;;;;;;4992577;28;20053;-50
2023/06/11 08:12:31;;;;;;;7.43;6.05;;;26.00;51.10;;;;;;5001830;28;20046;-52
2023/06/11 08:14:58;;;;;;;7.38;6.38;;;26.00;51.40;;;;;;5004706;28;20065;-52
2023/06/11 08:17:25;;;;;;;6.97;6.28;;;26.10;51.30;;;;;;5007332;28;20037;-50
2023/06/11 08:19:51;;;;;;;8.38;6.88;;;26.10;51.40;;;;;;5008724;28;20116;-53
2023/06/11 08:22:21;;;;;;;8.07;7.15;;;26.20;51.60;;;;;;5004793;28;20122;-52
2023/06/11 08:24:47;;;;;;;7.57;6.32;;;26.20;51.10;;;;;;5000468;28;20062;-50
2023/06/11 08:27:14;;;;;;;7.20;6.40;;;26.30;51.20;;;;;;5001141;28;20067;-53
2023/06/11 08:29:41;;;;;;;8.68;6.55;;;26.30;51.50;;;;;;5006878;28;20084;-51
2023/06/11 08:32:08;;;;;;;7.28;6.68;;;26.40;51.20;;;;;;5001706;28;20073;-51
2023/06/11 08:34:35;;;;;;;8.57;6.22;;;26.50;51.10;;;;;;5011959;28;20048;-52
2023/06/11 08:37:03;;;;;;;7.78;7.00;;;26.50;50.80;;;;;;5011775;28;20077;-50
2023/06/11 08:39:30;;;;;;;6.47;5.88;;;26.60;50.50;;;;;;5008306;28;20072;-50
2023/06/11 08:41:57;;;;;;;9.63;7.00;;;26.60;50.50;;;;;;5003014;28;20050;-53
2023/06/11 08:44:23;;;;;;;6.10;5.70;;;26.60;50.90;;;;;;5012625;28;20703;-53
2023/06/11 08:46:55;;;;;;;7.13;6.25;;;26.70;50.70;;;;;;5011670;28;20077;-53
2023/06/11 08:49:22;;;;;;;6.22;5.72;;;26.70;50.90;;;;;;5004717;28;20648;-53
2023/06/11 08:51:50;;;;;;;7.20;5.93;;;26.90;50.60;;;;;;5003644;28;20137;-51
2023/06/11 08:54:17;;;;;;;6.00;5.50;;;26.90;50.00;;;;;;5004964;28;20042;-50
2023/06/11 08:56:44;;;;;;;7.97;5.93;;;27.00;49.90;;;;;;5001990;28;20491;-49
2023/06/11 08:59:11;;;;;;;5.97;5.25;;;27.00;49.30;;;;;;5012727;28;20113;-54
2023/06/11 09:01:40;;;;;;;7.20;5.68;;;27.10;49.20;;;;;;5009017;28;20542;-53
2023/06/11 09:04:07;;;;;;;6.88;6.15;;;27.10;49.70;;;;;;5002463;28;20052;-50
2023/06/11 09:06:34;;;;;;;6.18;5.70;;;27.10;49.10;;;;;;5011426;28;20119;-52
2023/06/11 09:09:07;;;;;;;7.43;6.18;;;27.20;49.50;;;;;;5012430;28;20050;-53
2023/06/11 09:11:38;;;;;;;6.28;5.13;;;27.20;48.90;;;;;;5006550;28;20048;-51
2023/06/11 09:14:06;;;;;;;7.82;5.93;;;27.30;48.80;;;;;;5006098;28;20489;-52
2023/06/11 09:16:45;;;;;;;7.32;5.43;;;27.30;48.50;;;;;;5011270;28;20041;-53
2023/06/11 09:19:16;;;;;;;7.07;5.43;;;27.40;48.60;;;;;;5012121;28;20046;-50
2023/06/11 09:21:54;;;;;;;8.55;5.80;;;27.50;48.60;;;;;;5004251;28;20042;-53
2023/06/11 09:24:22;;;;;;;5.80;5.22;;;27.50;48.60;;;;;;5006904;28;20042;-52
2023/06/11 09:26:54;;;;;;;5.57;5.07;;;27.60;48.40;;;;;;4988378;28;20502;-52
2023/06/11 09:29:22;;;;;;;7.07;5.53;;;27.60;47.90;;;;;;5012485;28;20096;-53
2023/06/11 09:32:00;;;;;;;7.65;5.72;;;27.70;47.60;;;;;;5009708;28;20046;-52
2023/06/11 09:34:27;;;;;;;7.35;4.82;;;27.70;47.50;;;;;;5009142;28;20097;-52
2023/06/11 09:36:53;;;;;;;8.40;5.07;;;27.80;47.30;;;;;;5010959;28;20490;-49
2023/06/11 09:39:23;;;;;;;7.93;5.78;;;27.80;46.90;;;;;;5015861;28;20502;-53
2023/06/11 09:41:50;;;;;;;6.15;5.10;;;27.90;46.70;;;;;;5000003;28;20045;-52
2023/06/11 09:44:18;;;;;;;6.28;5.32;;;27.90;47.30;;;;;;5003535;28;20118;-51
2023/06/11 09:46:47;;;;;;;4.97;4.53;;;28.00;46.50;;;;;;5010094;28;20112;-53
2023/06/11 09:49:15;;;;;;;5.20;4.85;;;28.00;46.70;;;;;;5003444;28;20104;-49
2023/06/11 09:51:43;;;;;;;12.48;6.35;;;28.10;46.50;;;;;;4999741;28;20080;-51
2023/06/11 09:54:12;;;;;;;5.63;5.22;;;28.10;46.60;;;;;;5007652;28;20100;-53
2023/06/11 09:56:42;;;;;;;5.15;4.75;;;28.20;46.40;;;;;;5028475;23;20132;-54
2023/06/11 09:59:12;;;;;;;5.63;4.60;;;28.20;46.30;;;;;;4983035;28;20126;-53
2023/06/11 10:01:47;;;;;;;5.97;4.60;;;28.30;45.50;;;;;;4994370;28;20080;-54
2023/06/11 10:04:14;;;;;;;7.30;5.35;;;28.30;45.70;;;;;;4990600;28;20038;-54
2023/06/11 10:06:45;;;;;;;6.05;5.53;;;28.40;45.80;;;;;;4989549;28;20125;-56
2023/06/11 10:09:15;;;;;;;6.43;5.78;;;28.40;45.70;;;;;;4984349;28;20565;-54
2023/06/11 10:11:44;;;;;;;6.00;5.30;;;28.50;46.10;;;;;;4994302;28;20129;-54
2023/06/11 10:14:14;;;;;;;10.35;5.30;;;28.60;45.60;;;;;;4991252;28;20121;-55
2023/06/11 10:16:47;;;;;;;5.47;4.97;;;28.60;45.30;;;;;;4983283;28;20448;-56
2023/06/11 10:19:14;;;;;;;5.15;4.75;;;28.70;45.50;;;;;;4991156;28;20059;-55
2023/06/11 10:21:44;;;;;;;5.13;4.63;;;28.70;45.40;;;;;;4991266;28;20073;-55
2023/06/11 10:24:25;;;;;;;4.75;4.00;;;28.80;44.60;;;;;;4986705;28;20046;-56
2023/06/11 10:27:13;;;;;;;4.70;4.27;;;28.90;45.10;;;;;;4985099;28;20503;-55
2023/06/11 10:29:49;;;;;;;5.05;4.65;;;28.90;44.80;;;;;;4991072;28;20049;-54
2023/06/11 10:32:21;;;;;;;5.43;5.00;;;29.00;44.60;;;;;;4979826;28;20050;-55
2023/06/11 10:34:53;;;;;;;;;;;29.10;45.00;;;;;;4988188;28;20042;-55
2023/06/11 10:37:47;;;;;;;4.47;3.92;;;29.20;45.40;;;;;;4984555;28;20020;-55
2023/06/11 10:40:14;;;;;;;4.80;3.30;;;29.30;43.90;;;;;;4988603;28;20042;-55
2023/06/11 10:42:52;;;;;;;7.15;4.47;;;29.30;43.50;;;;;;4980543;28;20049;-55
2023/06/11 10:45:18;;;;;;;5.07;4.38;;;29.30;43.40;;;;;;4983341;28;20113;-55
2023/06/11 10:47:49;;;;;;;4.47;4.07;;;29.40;44.30;;;;;;4990577;28;20057;-55
2023/06/11 10:50:24;;;;;;;5.72;4.18;;;29.40;43.40;;;;;;4976948;28;20139;-55
2023/06/11 10:52:56;;;;;;;8.23;4.53;;;29.50;43.90;;;;;;4981029;28;20047;-54
2023/06/11 10:55:25;;;;;;;6.13;4.53;;;29.60;43.00;;;;;;4985292;28;20046;-54
2023/06/11 10:57:53;;;;;;;4.45;3.75;;;29.60;43.30;;;;;;4985574;28;20105;-54
2023/06/11 11:00:21;;;;;;;5.72;4.22;;;29.70;42.30;;;;;;4991300;28;20058;-55
2023/06/11 11:02:49;;;;;;;7.72;4.10;;;29.70;41.70;;;;;;4987444;28;20047;-54
2023/06/11 11:05:18;;;;;;;7.22;4.25;;;29.80;42.40;;;;;;4980293;28;20050;-55
2023/06/11 11:07:45;;;;;;;5.68;4.47;;;29.80;41.40;;;;;;4988732;28;20459;-56
2023/06/11 11:10:18;;;;;;;7.70;4.30;;;29.80;40.90;;;;;;4987460;28;20443;-56
2023/06/11 11:12:47;;;;;;;5.00;4.32;;;29.90;40.90;;;;;;4989125;28;20057;-52
2023/06/11 11:15:15;;;;;;;4.50;4.13;;;29.90;40.70;;;;;;4981705;28;20046;-54
2023/06/11 11:17:43;;;;;;;5.38;4.65;;;30.00;40.50;;;;;;4985365;28;20554;-55
2023/06/11 11:20:17;;;;;;;5.90;5.28;;;30.10;40.10;;;;;;4989709;28;20208;-56
2023/06/11 11:22:56;;;;;;;4.57;4.18;;;30.20;39.60;;;;;;4990400;28;20038;-55
2023/06/11 11:25:33;;;;;;;6.07;4.63;;;30.20;39.20;;;;;;4979176;28;20041;-55
2023/06/11 11:28:00;;;;;;;7.15;5.18;;;30.30;39.30;;;;;;4994097;28;20050;-54
2023/06/11 11:30:28;;;;;;;6.05;4.65;;;30.40;39.60;;;;;;4990848;28;20113;-55
2023/06/11 11:32:56;;;;;;;5.40;4.82;;;30.40;39.40;;;;;;4996353;28;20046;-52
2023/06/11 11:35:25;;;;;;;5.78;4.35;;;30.50;39.10;;;;;;4978171;28;20057;-55
2023/06/11 11:37:54;;;;;;;6.47;5.10;;;30.60;39.00;;;;;;4992390;28;20049;-52
2023/06/11 11:40:22;;;;;;;7.60;5.00;;;30.60;39.60;;;;;;4990846;28;20117;-53
2023/06/11 11:42:49;;;;;;;6.55;4.97;;;30.70;39.90;;;;;;4990054;28;20057;-51
2023/06/11 11:45:17;;;;;;;4.78;4.38;;;30.70;39.60;;;;;;4981326;28;20093;-55
2023/06/11 11:47:50;;;;;;;5.40;4.93;;;30.90;39.40;;;;;;4993710;28;20502;-55
2023/06/11 11:50:25;;;;;;;5.35;4.82;;;30.90;39.50;;;;;;4977259;28;20047;-56
2023/06/11 11:53:04;;;;;;;6.45;4.93;;;31.00;38.20;;;;;;4988789;28;20050;-54
2023/06/11 11:55:46;;;;;;;6.85;5.45;;;31.10;38.20;;;;;;4979900;28;20222;-55
2023/06/11 11:58:37;;;;;;;4.85;4.38;;;31.20;37.10;;;;;;4989257;28;20038;-53
2023/06/11 12:01:08;;;;;;;10.15;5.43;;;31.20;37.10;;;;;;4989764;28;20042;-55
2023/06/11 12:03:36;;;;;;;4.33;4.00;;;31.30;37.10;;;;;;4992031;28;20046;-55
2023/06/11 12:06:08;;;;;;;5.10;4.22;;;31.40;37.50;;;;;;4977105;28;20046;-53
2023/06/11 12:08:37;;;;;;;5.90;4.10;;;31.50;36.60;;;;;;4997774;28;20046;-55
2023/06/11 12:11:06;;;;;;;4.97;4.15;;;31.50;36.20;;;;;;4993885;28;20410;-56
2023/06/11 12:13:33;;;;;;;8.10;4.22;;;31.50;36.00;;;;;;4987202;28;20108;-56
2023/06/11 12:16:02;;;;;;;6.65;4.60;;;31.60;36.00;;;;;;4991346;28;20046;-56
2023/06/11 12:18:32;;;;;;;8.52;5.07;;;31.80;36.00;;;;;;4997207;28;20038;-55
2023/06/11 12:20:58;;;;;;;4.22;3.92;;;31.80;36.00;;;;;;4992560;28;20046;-56
2023/06/11 12:23:26;;;;;;;5.40;4.88;;;31.90;36.40;;;;;;4987918;28;20035;-55
2023/06/11 12:25:53;;;;;;;8.02;4.88;;;31.90;36.00;;;;;;4987843;28;20042;-55
2023/06/11 12:28:20;;;;;;;7.45;5.05;;;32.00;35.80;;;;;;4996583;28;20669;-55
2023/06/11 12:30:49;;;;;;;5.22;4.82;;;32.10;35.70;;;;;;4977213;28;20066;-55
2023/06/11 12:33:16;;;;;;;4.80;4.45;;;32.20;35.60;;;;;;4989745;28;20049;-55
2023/06/11 12:35:43;;;;;;;5.85;4.25;;;32.30;35.10;;;;;;4991154;28;20073;-55
2023/06/11 12:38:10;;;;;;;4.43;4.03;;;32.40;35.00;;;;;;4995649;28;20398;-55
2023/06/11 12:40:37;;;;;;;5.97;4.20;;;32.40;34.90;;;;;;4991567;28;20133;-55
2023/06/11 12:43:04;;;;;;;5.15;4.65;;;32.50;34.70;;;;;;4980426;28;20039;-56
2023/06/11 12:45:32;;;;;;;5.57;4.63;;;32.60;34.20;;;;;;4986333;28;20721;-55
2023/06/11 12:48:00;;;;;;;5.97;4.18;;;32.70;34.10;;;;;;4987636;28;20049;-55
2023/06/11 12:50:27;;;;;;;5.40;4.93;;;32.70;34.40;;;;;;4981695;28;20199;-55
2023/06/11 12:53:06;;;;;;;;;;;;;;;;;;;;;
2023/06/11 12:55:36;;;;;;;5.13;4.53;;;32.90;34.10;;;;;;4984833;28;20639;-56
2023/06/11 12:58:07;;;;;;;4.57;4.18;;;33.00;33.70;;;;;;4992527;28;20124;-55
2023/06/11 13:00:36;;;;;;;8.52;5.10;;;33.00;33.40;;;;;;4994215;28;20097;-55
2023/06/11 13:03:05;;;;;;;4.78;4.38;;;33.10;33.00;;;;;;4991016;28;20084;-55